15:06
Airports
History
Links
Donate
Help keep this website running!
PayPal
Bitcoin
This page is community maintained. The information is intended for PC simulator navigation or reference.
Always use approved charts for navigation.
EDCW
Wismar-Mueggenburg
Wismar-Mueggenburg (EDCW)
Wismar, Mecklenburg-Vorpommern, Germany (23970)
(C)
Lat/Lng:53° 54' 47.4" N / 11° 30' 0" E
53.913167 / 11.5
Elevation:27'ft / 8mMSL
ID / ICAO:EDCW
Runways:1
Longest:08-26
Grass 692m / 2,270ft
Controlled:Yes
Nearby Weather14:20 GMT 2018-01-16
Nearby weather at ETNL, Laage located 31.7 nautical miles from EDCW
Altimeter: 29.12
Visibility: 6.2 statute miles
Wind: 7 knots (from 220°)
Temp: 3°c / 37°f
Humidity: 93.1%

METAR: ETNL 161420Z 22007KT 9999 FEW010 BKN020 03/02 Q0986 WHT BLU TEMPO GRN

(Powered by phpweather)
Airport Radio Frequencies
Tower: 123.05
Nearby VORs <50NM
Nearby NDBs
Runway 08 / 26
Dimensions:692 x 39.9m 2270' x 131'ft
Surface:Grass
Runway 08 [A]Runway 26 [B]
Heading:079°TH 259°TH
Lat:
Lng:
53° 54' 45.24"N
11° 29' 41.1"E
53° 54' 49.56"N
11° 30' 18.9"E
User Notes and Comments
53° 54' 47.4" N / 11° 30' 0" E
Distance To
Airport ID:
Nearby Airports
(C) Pinnow 20.7 NM
EDBP S 172°
(C) Grube 29.9 NM
EDHB NW 319°
(C) Laage 31.7 NM
ETNL ( WX ) E 89°
(C) Sierksdorf Hof Altona 32.6 NM
EDXT WNW 289°
(C) Lubeck Blankensee 32.8 NM
EDHL ( WX ) WSW 256°
(C) Purkshof 34.9 NM
EDCX ENE 60°
(C) Schwerin Parchim 35.5 NM
EDOP ( WX ) SSE 160°
VFR Chart
Flight Planning at SkyVector.com